Terminal Aerodrome Forecast
Issued by NWS

Home | Current Version | Previous Version | Text Only | Print | Product List | Glossary On
Versions: 1 2 3 4 5 6 7 8 9 10 11 12
000
FTUS45 KTFX 171700
TAFHVR
TAF
KHVR 171723Z 1718/1818 VRB06KT P6SM SCT180
     FM180100 11008KT P6SM SCT080 BKN150
     FM181600 24011KT P6SM BKN150=

USA.gov is the U.S. government's official web portal to all federal, state and local government web resources and services.